Time;durP1;ratioP1;P1;durP2;ratioP2;P2;SDS_P1;SDS_P2;PMS_P1;PMS_P2;Temp;Humidity;BMP_temperature;BMP_pressure;BME280_temperature;BME280_humidity;BME280_pressure;Samples;Min_cycle;Max_cycle;Signal;HPM_P1;HPM_P2
2020/12/02 00:00:43;;;;;;;54.23;19.70;;;;;;;;;;4995719;28;20720;-79
2020/12/02 00:03:51;;;;;;;50.23;18.93;;;;;;;;;;4995370;28;20201;-79
2020/12/02 00:06:56;;;;;;;47.60;17.83;;;;;;;;;;4996265;28;20927;-79
2020/12/02 00:10:01;;;;;;;47.17;17.03;;;;;;;;;;4999461;28;20283;-78
2020/12/02 00:13:07;;;;;;;56.20;17.23;;;;;;;;;;5011831;28;20213;-79
2020/12/02 00:16:13;;;;;;;56.07;20.00;;;;;;;;;;4995561;28;20240;-77
2020/12/02 00:19:18;;;;;;;56.90;20.00;;;;;;;;;;5008260;28;20339;-77
2020/12/02 00:22:24;;;;;;;49.83;18.40;;;;;;;;;;4987848;28;20305;-77
2020/12/02 00:25:29;;;;;;;50.80;17.10;;;;;;;;;;4996035;28;20220;-77
2020/12/02 00:28:35;;;;;;;58.00;19.50;;;;;;;;;;5006386;28;20239;-77
2020/12/02 00:31:40;;;;;;;54.20;19.10;;;;;;;;;;4997578;28;20220;-78
2020/12/02 00:34:44;;;;;;;55.43;20.13;;;;;;;;;;5000493;28;20252;-77
2020/12/02 00:37:49;;;;;;;56.83;18.30;;;;;;;;;;4998450;28;20628;-77
2020/12/02 00:40:54;;;;;;;52.50;18.63;;;;;;;;;;4977803;28;20237;-77
2020/12/02 00:43:59;;;;;;;48.30;18.37;;;;;;;;;;4991594;28;20216;-77
2020/12/02 00:47:04;;;;;;;56.30;19.07;;;;;;;;;;5010276;28;20299;-78
2020/12/02 00:50:10;;;;;;;56.10;17.93;;;;;;;;;;5012387;28;20228;-78
2020/12/02 00:53:16;;;;;;;49.20;17.57;;;;;;;;;;5009008;28;20217;-78
2020/12/02 00:56:21;;;;;;;53.30;18.43;;;;;;;;;;5001793;28;20251;-77
2020/12/02 00:59:30;;;;;;;50.17;18.13;;;;;;;;;;5019749;28;20274;-78
2020/12/02 01:02:37;;;;;;;58.17;18.93;;;;;;;;;;5018829;28;20296;-78
2020/12/02 01:05:42;;;;;;;53.10;18.70;;;;;;;;;;5004542;28;20200;-78
2020/12/02 01:08:50;;;;;;;55.63;18.07;;;;;;;;;;4995032;28;20278;-78
2020/12/02 01:11:56;;;;;;;55.20;19.03;;;;;;;;;;4997286;28;20248;-77
2020/12/02 01:15:03;;;;;;;52.43;19.17;;;;;;;;;;5000529;28;20189;-79
2020/12/02 01:18:09;;;;;;;49.13;18.70;;;;;;;;;;5007447;28;20205;-77
2020/12/02 01:21:22;;;;;;;51.13;17.73;;;;;;;;;;4995538;28;20279;-78
2020/12/02 01:24:29;;;;;;;51.97;17.53;;;;;;;;;;4994742;28;20220;-77
2020/12/02 01:27:37;;;;;;;53.63;18.97;;;;;;;;;;5004585;28;20221;-78
2020/12/02 01:30:42;;;;;;;48.13;17.80;;;;;;;;;;5006736;28;20224;-79
2020/12/02 01:33:47;;;;;;;52.40;18.67;;;;;;;;;;4993972;28;20212;-78
2020/12/02 01:37:16;;;;;;;51.87;17.87;;;;;;;;;;4997505;28;20216;-78
2020/12/02 01:40:23;;;;;;;53.17;18.90;;;;;;;;;;4987758;28;20583;-77
2020/12/02 01:43:27;;;;;;;51.47;18.40;;;;;;;;;;5006793;28;20204;-78
2020/12/02 01:46:35;;;;;;;52.53;18.63;;;;;;;;;;4994409;28;20658;-77
2020/12/02 01:49:44;;;;;;;55.90;19.10;;;;;;;;;;5003124;28;20241;-78
2020/12/02 01:52:55;;;;;;;50.73;18.03;;;;;;;;;;5006393;28;20263;-78
2020/12/02 01:56:01;;;;;;;47.70;17.27;;;;;;;;;;4994143;28;20240;-78
2020/12/02 01:59:11;;;;;;;52.97;19.20;;;;;;;;;;4992582;28;20209;-77
2020/12/02 02:02:18;;;;;;;55.50;18.60;;;;;;;;;;4994632;28;20233;-77
2020/12/02 02:05:27;;;;;;;49.83;17.83;;;;;;;;;;5000548;28;20213;-78
2020/12/02 02:08:33;;;;;;;53.40;18.07;;;;;;;;;;4996523;28;20686;-78
2020/12/02 02:11:43;;;;;;;51.67;18.73;;;;;;;;;;5001629;28;20275;-77
2020/12/02 02:14:50;;;;;;;44.10;17.30;;;;;;;;;;4994719;28;20324;-78
2020/12/02 02:17:57;;;;;;;51.27;18.30;;;;;;;;;;4995169;28;20201;-78
2020/12/02 02:21:04;;;;;;;49.73;17.97;;;;;;;;;;5017196;28;20209;-77
2020/12/02 02:24:09;;;;;;;53.77;18.40;;;;;;;;;;5028853;28;20217;-77
2020/12/02 02:27:16;;;;;;;51.70;18.40;;;;;;;;;;5026245;28;20252;-76
2020/12/02 02:30:21;;;;;;;56.50;17.93;;;;;;;;;;5003456;28;20527;-77
2020/12/02 02:33:26;;;;;;;51.00;17.47;;;;;;;;;;4991110;28;20232;-77
2020/12/02 02:36:31;;;;;;;55.00;18.33;;;;;;;;;;4992444;28;20233;-77
2020/12/02 02:39:36;;;;;;;48.63;17.47;;;;;;;;;;5005010;28;20213;-77
2020/12/02 02:42:44;;;;;;;48.97;17.93;;;;;;;;;;4992809;28;20272;-77
2020/12/02 02:45:49;;;;;;;46.77;18.17;;;;;;;;;;5002077;28;20711;-77
2020/12/02 02:48:53;;;;;;;48.37;18.07;;;;;;;;;;5004111;28;20224;-77
2020/12/02 02:51:58;;;;;;;49.93;18.47;;;;;;;;;;5004426;28;20236;-77
2020/12/02 02:55:04;;;;;;;48.17;16.63;;;;;;;;;;4999261;28;20247;-78
2020/12/02 02:58:10;;;;;;;49.93;17.40;;;;;;;;;;4997796;28;20700;-78
2020/12/02 03:01:15;;;;;;;47.33;16.60;;;;;;;;;;4993111;28;20279;-78
2020/12/02 03:04:20;;;;;;;50.17;17.93;;;;;;;;;;4985805;28;20259;-77
2020/12/02 03:07:26;;;;;;;53.17;18.40;;;;;;;;;;5003183;28;20263;-77
2020/12/02 03:10:32;;;;;;;49.70;16.73;;;;;;;;;;5003595;28;20614;-77
2020/12/02 03:13:40;;;;;;;46.67;17.57;;;;;;;;;;5000199;28;20224;-77
2020/12/02 03:16:45;;;;;;;54.40;18.60;;;;;;;;;;4992825;28;20209;-77
2020/12/02 03:19:52;;;;;;;52.47;17.50;;;;;;;;;;4991639;28;20212;-77
2020/12/02 03:22:57;;;;;;;47.47;16.53;;;;;;;;;;4988619;28;20594;-77
2020/12/02 03:26:01;;;;;;;51.17;16.50;;;;;;;;;;4991605;28;20259;-77
2020/12/02 03:29:08;;;;;;;48.73;17.10;;;;;;;;;;4993050;28;20593;-77
2020/12/02 03:32:13;;;;;;;41.83;16.17;;;;;;;;;;4991213;28;20252;-77
2020/12/02 03:35:18;;;;;;;48.03;16.63;;;;;;;;;;4991411;28;20252;-77
2020/12/02 03:38:23;;;;;;;48.77;16.53;;;;;;;;;;4992617;28;20232;-76
2020/12/02 03:41:27;;;;;;;47.43;16.93;;;;;;;;;;4984777;28;20656;-77
2020/12/02 03:44:33;;;;;;;45.27;16.27;;;;;;;;;;4992011;28;20228;-77
2020/12/02 03:47:38;;;;;;;42.33;16.40;;;;;;;;;;4994241;28;20213;-78
2020/12/02 03:50:42;;;;;;;49.07;18.07;;;;;;;;;;5002191;28;20611;-77
2020/12/02 03:53:47;;;;;;;46.10;16.97;;;;;;;;;;4995009;28;20220;-77
2020/12/02 03:56:52;;;;;;;43.53;16.53;;;;;;;;;;5010566;28;20253;-76
2020/12/02 03:59:58;;;;;;;44.70;16.87;;;;;;;;;;5001039;28;20264;-78
2020/12/02 04:03:02;;;;;;;44.70;15.93;;;;;;;;;;4997816;28;20573;-78
2020/12/02 04:06:07;;;;;;;44.50;17.17;;;;;;;;;;4996721;28;20688;-78
2020/12/02 04:09:12;;;;;;;45.17;16.97;;;;;;;;;;4998776;28;20205;-78
2020/12/02 04:12:17;;;;;;;47.93;17.13;;;;;;;;;;5001632;28;20325;-77
2020/12/02 04:15:23;;;;;;;55.37;18.23;;;;;;;;;;5017493;28;20253;-78
2020/12/02 04:18:28;;;;;;;46.00;16.87;;;;;;;;;;5028355;28;20197;-78
2020/12/02 04:21:33;;;;;;;42.83;16.33;;;;;;;;;;5031165;28;20240;-78
2020/12/02 04:24:38;;;;;;;52.70;17.50;;;;;;;;;;5030323;28;20211;-78
2020/12/02 04:27:43;;;;;;;43.47;16.47;;;;;;;;;;4996091;28;20232;-78
2020/12/02 04:30:49;;;;;;;56.70;16.73;;;;;;;;;;5007360;28;20233;-77
2020/12/02 04:33:54;;;;;;;49.03;17.53;;;;;;;;;;4996242;28;20213;-77
2020/12/02 04:36:58;;;;;;;50.87;18.13;;;;;;;;;;4992239;28;20232;-77
2020/12/02 04:40:05;;;;;;;54.13;16.60;;;;;;;;;;5005106;28;20671;-78
2020/12/02 04:43:13;;;;;;;44.83;16.10;;;;;;;;;;4997656;28;20233;-77
2020/12/02 04:46:20;;;;;;;55.50;16.63;;;;;;;;;;4986875;28;20727;-78
2020/12/02 04:49:27;;;;;;;45.13;16.70;;;;;;;;;;4995914;28;20259;-77
2020/12/02 04:52:32;;;;;;;50.23;17.23;;;;;;;;;;5006136;28;20240;-78
2020/12/02 04:55:37;;;;;;;45.20;15.20;;;;;;;;;;5008843;28;20716;-78
2020/12/02 04:58:42;;;;;;;44.40;16.57;;;;;;;;;;4995732;28;20220;-76
2020/12/02 05:01:50;;;;;;;41.97;15.03;;;;;;;;;;4989823;28;20237;-77
2020/12/02 05:04:56;;;;;;;56.80;17.17;;;;;;;;;;4993665;28;20271;-76
2020/12/02 05:08:18;;;;;;;45.77;16.87;;;;;;;;;;4997746;28;20286;-77
2020/12/02 05:11:23;;;;;;;43.07;16.20;;;;;;;;;;4994362;28;20229;-77
2020/12/02 05:14:33;;;;;;;50.30;16.83;;;;;;;;;;4994057;28;20220;-77
2020/12/02 05:17:39;;;;;;;52.60;16.67;;;;;;;;;;4994573;28;20248;-77
2020/12/02 05:20:44;;;;;;;40.57;15.67;;;;;;;;;;5000630;28;20260;-77
2020/12/02 05:24:06;;;;;;;43.33;17.07;;;;;;;;;;5014666;28;20213;-77
2020/12/02 05:27:13;;;;;;;47.90;16.87;;;;;;;;;;5012622;28;20267;-77
2020/12/02 05:30:20;;;;;;;50.67;16.70;;;;;;;;;;4995638;28;20267;-77
2020/12/02 05:33:26;;;;;;;47.30;16.63;;;;;;;;;;4992355;28;20205;-77
2020/12/02 05:36:32;;;;;;;51.10;17.57;;;;;;;;;;4990139;28;20213;-76
2020/12/02 05:39:48;;;;;;;48.90;16.77;;;;;;;;;;5002005;28;20630;-78
2020/12/02 05:42:54;;;;;;;46.10;16.43;;;;;;;;;;4992056;28;20240;-78
2020/12/02 05:45:59;;;;;;;52.20;18.43;;;;;;;;;;4996314;28;20212;-79
2020/12/02 05:49:06;;;;;;;48.60;17.40;;;;;;;;;;4995108;28;20252;-78
2020/12/02 05:52:14;;;;;;;52.47;17.53;;;;;;;;;;4995764;28;20352;-78
2020/12/02 05:55:22;;;;;;;51.53;18.07;;;;;;;;;;4995167;28;20236;-78
2020/12/02 05:58:28;;;;;;;49.47;17.23;;;;;;;;;;4997462;28;20209;-80
2020/12/02 06:01:33;;;;;;;53.13;16.67;;;;;;;;;;5005072;28;20311;-79
2020/12/02 06:04:39;;;;;;;50.03;17.47;;;;;;;;;;4994655;28;20336;-77
2020/12/02 06:07:48;;;;;;;50.77;17.63;;;;;;;;;;4990589;28;20601;-77
2020/12/02 06:11:07;;;;;;;49.67;17.73;;;;;;;;;;4994981;28;20275;-78
2020/12/02 06:14:15;;;;;;;53.80;17.80;;;;;;;;;;5005517;28;20225;-79
2020/12/02 06:17:28;;;;;;;50.07;17.10;;;;;;;;;;5002718;28;20216;-78
2020/12/02 06:20:33;;;;;;;48.17;17.43;;;;;;;;;;5016971;28;20271;-78
2020/12/02 06:23:41;;;;;;;51.90;16.40;;;;;;;;;;5017114;28;20197;-79
2020/12/02 06:26:47;;;;;;;49.80;17.20;;;;;;;;;;5028454;28;20248;-78
2020/12/02 06:29:57;;;;;;;48.47;17.57;;;;;;;;;;5008093;28;20232;-77
2020/12/02 06:33:04;;;;;;;47.73;17.83;;;;;;;;;;5006292;28;20340;-78
2020/12/02 06:36:18;;;;;;;53.47;17.97;;;;;;;;;;4988119;28;20232;-77
2020/12/02 06:39:24;;;;;;;47.50;17.67;;;;;;;;;;4991547;28;20248;-78
2020/12/02 06:42:30;;;;;;;50.93;17.17;;;;;;;;;;4999717;28;20275;-77
2020/12/02 06:45:35;;;;;;;46.77;17.60;;;;;;;;;;4994214;28;20228;-77
2020/12/02 06:48:40;;;;;;;66.37;22.50;;;;;;;;;;4997986;28;20289;-77
2020/12/02 06:51:57;;;;;;;58.27;21.43;;;;;;;;;;4995789;28;20278;-77
2020/12/02 06:55:03;;;;;;;54.43;18.50;;;;;;;;;;4989127;28;20240;-78
2020/12/02 06:58:12;;;;;;;55.10;19.40;;;;;;;;;;5010511;28;20205;-77
2020/12/02 07:01:21;;;;;;;52.93;18.13;;;;;;;;;;5007153;28;20232;-77
2020/12/02 07:04:26;;;;;;;51.40;18.07;;;;;;;;;;5000949;28;20213;-77
2020/12/02 07:07:31;;;;;;;48.80;18.00;;;;;;;;;;4994584;28;20261;-78
2020/12/02 07:10:36;;;;;;;49.27;16.87;;;;;;;;;;4992413;28;20291;-77
2020/12/02 07:13:41;;;;;;;46.67;18.23;;;;;;;;;;4992921;28;20224;-77
2020/12/02 07:16:46;;;;;;;52.53;18.00;;;;;;;;;;4994048;28;20325;-78
2020/12/02 07:19:53;;;;;;;41.50;16.77;;;;;;;;;;5005957;28;20252;-78
2020/12/02 07:22:59;;;;;;;55.37;18.60;;;;;;;;;;5004703;28;20582;-78
2020/12/02 07:26:04;;;;;;;51.80;18.40;;;;;;;;;;4987057;28;20278;-78
2020/12/02 07:29:13;;;;;;;57.43;19.37;;;;;;;;;;4987810;28;20252;-78
2020/12/02 07:32:20;;;;;;;51.67;18.87;;;;;;;;;;4995113;28;20784;-78
2020/12/02 07:35:28;;;;;;;48.37;18.07;;;;;;;;;;4995552;28;20220;-78
2020/12/02 07:38:33;;;;;;;52.17;16.97;;;;;;;;;;5005685;28;20255;-78
2020/12/02 07:41:45;;;;;;;59.37;19.93;;;;;;;;;;5005315;28;20312;-78
2020/12/02 07:45:02;;;;;;;51.70;18.63;;;;;;;;;;4998352;28;20224;-77
2020/12/02 07:48:08;;;;;;;60.90;19.97;;;;;;;;;;5001509;28;20228;-77
2020/12/02 07:51:15;;;;;;;52.47;18.93;;;;;;;;;;5006569;28;20655;-78
2020/12/02 07:54:23;;;;;;;48.43;18.47;;;;;;;;;;5003844;28;20243;-77
2020/12/02 07:57:28;;;;;;;56.20;17.77;;;;;;;;;;4993474;28;20341;-77
2020/12/02 08:00:36;;;;;;;55.40;18.93;;;;;;;;;;4987489;28;20205;-77
2020/12/02 08:03:41;;;;;;;49.13;17.67;;;;;;;;;;4988748;28;20255;-79
2020/12/02 08:06:47;;;;;;;57.27;19.27;;;;;;;;;;5003761;28;20217;-78
2020/12/02 08:09:59;;;;;;;54.50;19.87;;;;;;;;;;5006971;28;20209;-78
2020/12/02 08:13:05;;;;;;;77.10;26.47;;;;;;;;;;4989342;28;20251;-78
2020/12/02 08:16:21;;;;;;;75.03;27.23;;;;;;;;;;4988777;28;20213;-80
2020/12/02 08:19:30;;;;;;;70.40;24.17;;;;;;;;;;4995907;28;20208;-79
2020/12/02 08:22:38;;;;;;;67.70;23.97;;;;;;;;;;4993882;28;20224;-78
2020/12/02 08:25:52;;;;;;;56.63;20.07;;;;;;;;;;4986980;28;20587;-77
2020/12/02 08:29:01;;;;;;;58.27;20.13;;;;;;;;;;4995872;28;20225;-77
2020/12/02 08:32:10;;;;;;;58.50;19.87;;;;;;;;;;5011995;28;20240;-78
2020/12/02 08:35:20;;;;;;;69.10;22.37;;;;;;;;;;4997829;28;20220;-77
2020/12/02 08:38:27;;;;;;;56.97;20.87;;;;;;;;;;4998240;28;20256;-78
2020/12/02 08:41:38;;;;;;;61.40;22.47;;;;;;;;;;5007927;28;20740;-78
2020/12/02 08:45:00;;;;;;;61.47;21.93;;;;;;;;;;5013294;28;20201;-78
2020/12/02 08:48:05;;;;;;;48.63;19.47;;;;;;;;;;5010988;28;20229;-78
2020/12/02 08:51:11;;;;;;;57.90;21.60;;;;;;;;;;5007844;28;20240;-78
2020/12/02 08:54:17;;;;;;;52.80;18.27;;;;;;;;;;4999028;28;20201;-78
2020/12/02 08:57:23;;;;;;;51.37;18.60;;;;;;;;;;4996579;28;20685;-78
2020/12/02 09:00:27;;;;;;;51.97;19.20;;;;;;;;;;4994271;28;20667;-79
2020/12/02 09:03:32;;;;;;;51.27;19.63;;;;;;;;;;4999923;28;20193;-78
2020/12/02 09:06:37;;;;;;;50.20;18.43;;;;;;;;;;4994588;28;20259;-77
2020/12/02 09:09:42;;;;;;;50.20;19.53;;;;;;;;;;4999466;28;20626;-79
2020/12/02 09:12:48;;;;;;;48.17;16.57;;;;;;;;;;5010973;28;20283;-79
2020/12/02 09:15:54;;;;;;;45.53;17.20;;;;;;;;;;4998927;28;20201;-79
2020/12/02 09:19:00;;;;;;;48.80;18.17;;;;;;;;;;5009090;28;20752;-78
2020/12/02 09:22:05;;;;;;;45.90;17.30;;;;;;;;;;5007775;28;20220;-77
2020/12/02 09:25:09;;;;;;;48.37;18.57;;;;;;;;;;5004607;28;20216;-77
2020/12/02 09:28:15;;;;;;;54.70;19.77;;;;;;;;;;4991336;28;20228;-77
2020/12/02 09:31:21;;;;;;;54.03;19.20;;;;;;;;;;5008252;28;20719;-78
2020/12/02 09:34:26;;;;;;;45.37;18.37;;;;;;;;;;5009026;28;20573;-78
2020/12/02 09:37:31;;;;;;;49.20;18.07;;;;;;;;;;4994091;28;20189;-78
2020/12/02 09:40:35;;;;;;;45.67;17.27;;;;;;;;;;4983477;28;20676;-77
2020/12/02 09:43:48;;;;;;;44.53;16.50;;;;;;;;;;5000885;28;20216;-77
2020/12/02 09:46:55;;;;;;;44.90;17.27;;;;;;;;;;5004691;28;20268;-78
2020/12/02 09:50:00;;;;;;;43.83;17.03;;;;;;;;;;4998393;28;20619;-78
2020/12/02 09:53:10;;;;;;;53.33;19.83;;;;;;;;;;5007581;28;20237;-77
2020/12/02 09:56:14;;;;;;;46.13;16.73;;;;;;;;;;4999508;28;20221;-77
2020/12/02 09:59:20;;;;;;;44.03;16.33;;;;;;;;;;5002278;28;20197;-77
2020/12/02 10:02:40;;;;;;;43.60;17.63;;;;;;;;;;5007791;28;20365;-77
2020/12/02 10:06:15;;;;;;;47.20;17.90;;;;;;;;;;4995237;28;20348;-77
2020/12/02 10:09:37;;;;;;;45.23;16.47;;;;;;;;;;4926624;28;20369;-77
2020/12/02 10:12:49;;;;;;;43.27;16.47;;;;;;;;;;4975627;28;20249;-77
2020/12/02 10:16:05;;;;;;;46.57;16.33;;;;;;;;;;4996969;28;20291;-77
2020/12/02 10:19:18;;;;;;;53.13;17.50;;;;;;;;;;4995493;28;20209;-77
2020/12/02 10:22:44;;;;;;;53.13;19.50;;;;;;;;;;4995929;28;20237;-78
2020/12/02 10:25:57;;;;;;;50.97;19.47;;;;;;;;;;5009566;28;20588;-78
2020/12/02 10:29:04;;;;;;;41.70;15.57;;;;;;;;;;4995281;28;20221;-78
2020/12/02 10:32:29;;;;;;;38.63;15.93;;;;;;;;;;4995025;28;20240;-78
2020/12/02 10:35:40;;;;;;;51.70;16.30;;;;;;;;;;4992692;28;20209;-77
2020/12/02 10:38:47;;;;;;;48.47;16.83;;;;;;;;;;4991346;28;20672;-78
2020/12/02 10:42:06;;;;;;;44.33;16.20;;;;;;;;;;4997742;28;20352;-78
2020/12/02 10:45:11;;;;;;;45.80;16.53;;;;;;;;;;5000716;28;20685;-78
2020/12/02 10:48:21;;;;;;;44.77;16.97;;;;;;;;;;5003743;28;20221;-77
2020/12/02 10:51:29;;;;;;;47.33;17.20;;;;;;;;;;4992362;28;20241;-77
2020/12/02 10:54:37;;;;;;;49.27;16.90;;;;;;;;;;4994266;28;20287;-77
2020/12/02 10:57:42;;;;;;;45.07;16.20;;;;;;;;;;4994991;28;20209;-77
2020/12/02 11:00:51;;;;;;;46.33;16.43;;;;;;;;;;4989480;28;20236;-77
2020/12/02 11:03:59;;;;;;;43.77;16.47;;;;;;;;;;5009165;28;20216;-77
2020/12/02 11:07:14;;;;;;;44.77;15.93;;;;;;;;;;5009559;28;20225;-77
2020/12/02 11:10:22;;;;;;;49.90;17.63;;;;;;;;;;5021113;28;20216;-77
2020/12/02 11:13:30;;;;;;;44.83;15.30;;;;;;;;;;4990245;28;20244;-77
2020/12/02 11:16:40;;;;;;;41.10;14.83;;;;;;;;;;5015305;28;20582;-76
2020/12/02 11:19:50;;;;;;;37.80;14.70;;;;;;;;;;4994920;28;20268;-78
2020/12/02 11:23:04;;;;;;;42.77;14.47;;;;;;;;;;4994092;28;20209;-77
2020/12/02 11:26:13;;;;;;;41.53;15.13;;;;;;;;;;5006144;28;20225;-78
2020/12/02 11:29:19;;;;;;;47.43;17.63;;;;;;;;;;5006111;28;20237;-78
2020/12/02 11:32:39;;;;;;;52.57;17.20;;;;;;;;;;4994733;28;20237;-77
2020/12/02 11:36:01;;;;;;;46.93;16.60;;;;;;;;;;5002958;28;20196;-78
2020/12/02 11:39:17;;;;;;;43.97;15.93;;;;;;;;;;4997691;28;20216;-78
2020/12/02 11:42:26;;;;;;;40.53;15.87;;;;;;;;;;4995686;28;20257;-79
2020/12/02 11:45:33;;;;;;;48.63;17.20;;;;;;;;;;4992660;28;20193;-78
2020/12/02 11:48:39;;;;;;;50.20;16.33;;;;;;;;;;4992306;28;20229;-79
2020/12/02 11:51:52;;;;;;;40.23;15.13;;;;;;;;;;4996015;28;20232;-79
2020/12/02 11:54:58;;;;;;;44.00;16.17;;;;;;;;;;5006857;28;20209;-79
2020/12/02 11:58:05;;;;;;;58.23;17.90;;;;;;;;;;5005327;28;20283;-78
2020/12/02 12:01:17;;;;;;;45.33;16.83;;;;;;;;;;5000751;28;20240;-78
2020/12/02 12:04:28;;;;;;;46.30;16.07;;;;;;;;;;5000213;28;20685;-78
2020/12/02 12:07:36;;;;;;;42.97;15.73;;;;;;;;;;5010031;28;20217;-78
2020/12/02 12:10:47;;;;;;;52.10;20.67;;;;;;;;;;4997147;28;20391;-78
2020/12/02 12:13:54;;;;;;;54.83;19.83;;;;;;;;;;5000893;28;20220;-78
2020/12/02 12:17:07;;;;;;;49.57;17.73;;;;;;;;;;4997415;28;20583;-78
2020/12/02 12:20:14;;;;;;;50.93;16.30;;;;;;;;;;5003349;28;20245;-79
2020/12/02 12:23:28;;;;;;;45.47;16.37;;;;;;;;;;5010111;28;20236;-78
2020/12/02 12:26:36;;;;;;;50.27;17.70;;;;;;;;;;5004127;28;20583;-78
2020/12/02 12:29:40;;;;;;;42.77;16.60;;;;;;;;;;4998741;28;20283;-79
2020/12/02 12:32:49;;;;;;;48.97;17.43;;;;;;;;;;4984789;28;20189;-78
2020/12/02 12:35:55;;;;;;;45.70;16.37;;;;;;;;;;4998048;28;20577;-79
2020/12/02 12:39:02;;;;;;;53.03;16.83;;;;;;;;;;4997973;28;20216;-78
2020/12/02 12:42:12;;;;;;;47.63;16.80;;;;;;;;;;4992194;28;20731;-79
2020/12/02 12:45:20;;;;;;;47.10;16.03;;;;;;;;;;4997593;28;20356;-78
2020/12/02 12:48:25;;;;;;;49.13;17.40;;;;;;;;;;4994057;28;20692;-78
2020/12/02 12:51:31;;;;;;;42.07;15.60;;;;;;;;;;4993307;28;20821;-79
2020/12/02 12:54:36;;;;;;;51.67;15.30;;;;;;;;;;5008825;28;20804;-77
2020/12/02 12:57:46;;;;;;;49.53;16.67;;;;;;;;;;4999295;28;20201;-76
2020/12/02 13:00:52;;;;;;;41.23;15.30;;;;;;;;;;5001168;28;20265;-78
2020/12/02 13:04:01;;;;;;;47.50;16.63;;;;;;;;;;4998021;28;20248;-78
2020/12/02 13:07:15;;;;;;;51.83;17.30;;;;;;;;;;5015950;28;20213;-78
2020/12/02 13:10:35;;;;;;;41.73;16.27;;;;;;;;;;5003719;28;20209;-79
2020/12/02 13:13:47;;;;;;;42.10;17.43;;;;;;;;;;5011533;28;20209;-77
2020/12/02 13:17:02;;;;;;;51.37;17.37;;;;;;;;;;5024480;28;20212;-76
2020/12/02 13:20:10;;;;;;;43.23;16.70;;;;;;;;;;5008370;28;20221;-77
2020/12/02 13:23:16;;;;;;;44.33;17.27;;;;;;;;;;4998487;28;20194;-77
2020/12/02 13:26:21;;;;;;;50.77;18.50;;;;;;;;;;5008069;28;20341;-78
2020/12/02 13:29:31;;;;;;;41.30;16.23;;;;;;;;;;5009128;28;20264;-78
2020/12/02 13:32:40;;;;;;;45.30;16.57;;;;;;;;;;5000860;28;20828;-77
2020/12/02 13:35:47;;;;;;;42.47;16.33;;;;;;;;;;4999058;28;20209;-78
2020/12/02 13:38:52;;;;;;;47.80;17.33;;;;;;;;;;5006196;28;20408;-78
2020/12/02 13:41:58;;;;;;;46.93;16.63;;;;;;;;;;5068770;22;20242;-93
2020/12/02 13:45:18;;;;;;;48.60;16.70;;;;;;;;;;5064194;28;20198;-92
2020/12/02 13:48:26;;;;;;;40.37;15.37;;;;;;;;;;5054196;28;20216;-94
2020/12/02 13:55:49;;;;;;;50.97;18.73;;;;;;;;;;5056305;28;20192;-93
2020/12/02 13:59:02;;;;;;;45.73;17.90;;;;;;;;;;5055075;28;20187;-95
2020/12/02 14:02:16;;;;;;;47.67;18.13;;;;;;;;;;5051928;28;20200;-92
2020/12/02 14:05:31;;;;;;;52.37;20.63;;;;;;;;;;5050758;28;20200;-92
2020/12/02 14:08:36;;;;;;;50.87;18.13;;;;;;;;;;5052378;28;20224;-91
2020/12/02 14:11:45;;;;;;;54.57;21.30;;;;;;;;;;5052792;28;20184;-94
2020/12/02 14:14:50;;;;;;;52.77;18.40;;;;;;;;;;5052304;28;20192;-93
2020/12/02 14:17:56;;;;;;;55.50;20.80;;;;;;;;;;5051006;28;20199;-93
2020/12/02 14:24:54;;;;;;;71.97;20.80;;;;;;;;;;5051335;28;20207;-93
2020/12/02 14:28:02;;;;;;;55.07;18.67;;;;;;;;;;5052266;28;20179;-93
2020/12/02 14:31:09;;;;;;;51.03;19.63;;;;;;;;;;5050848;28;20192;-93
2020/12/02 14:34:17;;;;;;;57.83;20.70;;;;;;;;;;5068937;28;20194;-93
2020/12/02 14:37:26;;;;;;;51.77;18.97;;;;;;;;;;5072134;28;20198;-94
2020/12/02 14:40:45;;;;;;;49.63;18.73;;;;;;;;;;5071893;28;20246;-94
2020/12/02 14:43:52;;;;;;;56.77;20.60;;;;;;;;;;5072909;28;20184;-94
2020/12/02 14:46:57;;;;;;;49.37;19.23;;;;;;;;;;5070838;28;20262;-93
2020/12/02 14:50:03;;;;;;;52.60;18.73;;;;;;;;;;5067744;28;20214;-93
2020/12/02 14:53:08;;;;;;;54.10;19.40;;;;;;;;;;5067631;28;20175;-93
2020/12/02 14:56:16;;;;;;;59.10;19.43;;;;;;;;;;5078685;28;20315;-93
2020/12/02 14:59:27;;;;;;;53.57;19.57;;;;;;;;;;5067733;28;20302;-91
2020/12/02 15:02:32;;;;;;;56.90;20.27;;;;;;;;;;5066674;28;20191;-91
2020/12/02 15:05:39;;;;;;;59.00;21.10;;;;;;;;;;5070455;28;20275;-92
2020/12/02 15:15:47;;;;;;;59.90;19.57;;;;;;;;;;5087468;22;20245;-82
2020/12/02 15:18:52;;;;;;;56.30;21.10;;;;;;;;;;5085723;28;20206;-81
2020/12/02 15:21:58;;;;;;;57.90;20.60;;;;;;;;;;5088076;28;20233;-78
2020/12/02 15:25:04;;;;;;;54.83;20.63;;;;;;;;;;5087025;28;20236;-80
2020/12/02 15:28:12;;;;;;;65.90;22.37;;;;;;;;;;5082473;28;20209;-80
2020/12/02 15:31:22;;;;;;;54.60;20.07;;;;;;;;;;5094709;28;20190;-80
2020/12/02 15:34:27;;;;;;;57.83;19.90;;;;;;;;;;5082037;28;20221;-79
2020/12/02 15:37:36;;;;;;;62.73;21.17;;;;;;;;;;5081706;28;20206;-78
2020/12/02 15:40:49;;;;;;;61.43;20.67;;;;;;;;;;5082589;28;20198;-80
2020/12/02 15:44:15;;;;;;;55.73;19.90;;;;;;;;;;5079897;28;20190;-81
2020/12/02 15:47:25;;;;;;;60.47;22.53;;;;;;;;;;5085279;28;20186;-77
2020/12/02 15:50:39;;;;;;;67.80;21.43;;;;;;;;;;5092249;28;20202;-78
2020/12/02 15:53:47;;;;;;;58.40;20.13;;;;;;;;;;5088751;28;20195;-77
2020/12/02 15:57:01;;;;;;;55.43;19.93;;;;;;;;;;5088300;28;20580;-79
2020/12/02 16:00:08;;;;;;;54.87;19.47;;;;;;;;;;5084092;28;20207;-79
2020/12/02 16:03:17;;;;;;;52.00;19.90;;;;;;;;;;5085894;28;20226;-80
2020/12/02 16:06:23;;;;;;;59.50;21.60;;;;;;;;;;5082998;28;20336;-80
2020/12/02 16:09:30;;;;;;;61.23;21.67;;;;;;;;;;5084061;28;20221;-80
2020/12/02 16:12:35;;;;;;;73.90;23.10;;;;;;;;;;5081347;28;20348;-80
2020/12/02 16:15:40;;;;;;;54.80;20.87;;;;;;;;;;5081061;28;20241;-80
2020/12/02 16:18:47;;;;;;;81.83;26.17;;;;;;;;;;5080236;28;20220;-79
2020/12/02 16:21:59;;;;;;;76.40;26.13;;;;;;;;;;5088841;28;20234;-80
2020/12/02 16:25:07;;;;;;;85.10;26.77;;;;;;;;;;5088810;28;20213;-80
2020/12/02 16:28:13;;;;;;;97.03;30.80;;;;;;;;;;5076333;28;20226;-81
2020/12/02 16:31:18;;;;;;;60.83;22.97;;;;;;;;;;5059607;28;20199;-80
2020/12/02 16:34:24;;;;;;;63.23;20.70;;;;;;;;;;5064131;28;20293;-77
2020/12/02 16:37:33;;;;;;;64.83;24.63;;;;;;;;;;5061905;28;20200;-79
2020/12/02 16:40:40;;;;;;;66.00;24.60;;;;;;;;;;5056410;28;20180;-79
2020/12/02 16:43:48;;;;;;;60.90;21.23;;;;;;;;;;5058948;28;20249;-80
2020/12/02 16:46:59;;;;;;;63.30;21.90;;;;;;;;;;5061036;28;20653;-80
2020/12/02 16:50:07;;;;;;;59.80;20.43;;;;;;;;;;5084094;28;20256;-81
2020/12/02 16:53:35;;;;;;;59.73;20.60;;;;;;;;;;5078827;28;20218;-79
2020/12/02 16:56:48;;;;;;;60.37;20.50;;;;;;;;;;5069388;28;20256;-81
2020/12/02 16:59:54;;;;;;;59.97;21.50;;;;;;;;;;5077395;28;20286;-80
2020/12/02 17:03:03;;;;;;;75.40;24.67;;;;;;;;;;5078049;28;20230;-80
2020/12/02 17:06:08;;;;;;;65.33;21.77;;;;;;;;;;5067650;28;20333;-79
2020/12/02 17:09:13;;;;;;;72.63;25.10;;;;;;;;;;5069202;28;20214;-81
2020/12/02 17:12:23;;;;;;;69.47;23.13;;;;;;;;;;5071726;28;20222;-79
2020/12/02 17:15:30;;;;;;;60.80;21.97;;;;;;;;;;5068564;28;20198;-79
2020/12/02 17:18:41;;;;;;;61.43;22.03;;;;;;;;;;5070914;28;20621;-78
2020/12/02 17:21:55;;;;;;;68.23;23.00;;;;;;;;;;5073710;28;20588;-78
2020/12/02 17:25:08;;;;;;;61.63;22.30;;;;;;;;;;5089524;28;20207;-81
2020/12/02 17:28:24;;;;;;;61.80;22.13;;;;;;;;;;5090103;28;20190;-81
2020/12/02 17:31:54;;;;;;;57.80;21.47;;;;;;;;;;5089452;28;20265;-82
2020/12/02 17:35:20;;;;;;;73.97;23.37;;;;;;;;;;5085533;28;20241;-79
2020/12/02 17:38:32;;;;;;;70.47;24.23;;;;;;;;;;5071233;28;20265;-80
2020/12/02 17:41:59;;;;;;;70.27;24.73;;;;;;;;;;5081279;28;20262;-80
2020/12/02 17:45:09;;;;;;;64.00;22.67;;;;;;;;;;5062208;28;20206;-80
2020/12/02 17:48:32;;;;;;;62.63;22.97;;;;;;;;;;5075820;28;20232;-79
2020/12/02 17:51:45;;;;;;;61.40;21.67;;;;;;;;;;5077722;28;20310;-79
2020/12/02 17:54:51;;;;;;;59.10;22.07;;;;;;;;;;5081908;28;20203;-80
2020/12/02 17:58:21;;;;;;;57.73;20.20;;;;;;;;;;5064721;28;20211;-79
2020/12/02 18:01:44;;;;;;;60.83;22.03;;;;;;;;;;5080528;28;20265;-80
2020/12/02 18:05:00;;;;;;;66.37;23.03;;;;;;;;;;5083940;28;20692;-79
2020/12/02 18:08:16;;;;;;;63.90;22.03;;;;;;;;;;5071420;28;20222;-79
2020/12/02 18:11:30;;;;;;;59.30;21.93;;;;;;;;;;5084907;28;20203;-79
2020/12/02 18:14:57;;;;;;;65.10;22.30;;;;;;;;;;5080352;28;20186;-78
2020/12/02 18:18:17;;;;;;;56.10;21.33;;;;;;;;;;5075938;28;20279;-80
2020/12/02 18:21:34;;;;;;;60.30;22.63;;;;;;;;;;5090395;28;20547;-80
2020/12/02 18:24:50;;;;;;;64.00;22.83;;;;;;;;;;5096009;28;20218;-81
2020/12/02 18:28:09;;;;;;;58.70;22.17;;;;;;;;;;5088677;28;20188;-80
2020/12/02 18:31:19;;;;;;;64.77;22.20;;;;;;;;;;5068094;28;20199;-84